sensor_id;sensor_type;location;lat;lon;timestamp;pressure;altitude;pressure_sealevel;temperature;humidity
57594;BME280;43423;46.510;6.686;2022-08-24T00:00:52;96411.69;;;20.48;44.89
57594;BME280;43423;46.510;6.686;2022-08-24T00:03:17;96410.63;;;20.79;43.80
57594;BME280;43423;46.510;6.686;2022-08-24T00:05:43;96406.28;;;20.71;44.03
57594;BME280;43423;46.510;6.686;2022-08-24T00:08:09;96415.50;;;20.58;44.99
57594;BME280;43423;46.510;6.686;2022-08-24T00:10:35;96412.78;;;20.45;44.86
57594;BME280;43423;46.510;6.686;2022-08-24T00:13:00;96425.69;;;20.34;45.08
57594;BME280;43423;46.510;6.686;2022-08-24T00:15:26;96423.59;;;20.27;45.43
57594;BME280;43423;46.510;6.686;2022-08-24T00:17:52;96408.47;;;20.23;46.08
57594;BME280;43423;46.510;6.686;2022-08-24T00:20:17;96405.53;;;20.28;46.23
57594;BME280;43423;46.510;6.686;2022-08-24T00:22:43;96413.31;;;20.22;45.91
57594;BME280;43423;46.510;6.686;2022-08-24T00:25:10;96415.88;;;20.20;46.18
57594;BME280;43423;46.510;6.686;2022-08-24T00:27:37;96417.31;;;20.14;46.22
57594;BME280;43423;46.510;6.686;2022-08-24T00:30:05;96406.06;;;20.06;46.47
57594;BME280;43423;46.510;6.686;2022-08-24T00:32:30;96410.22;;;20.13;46.13
57594;BME280;43423;46.510;6.686;2022-08-24T00:34:56;96412.19;;;20.04;46.14
57594;BME280;43423;46.510;6.686;2022-08-24T00:37:22;96418.94;;;20.09;46.47
57594;BME280;43423;46.510;6.686;2022-08-24T00:39:48;96417.78;;;20.04;46.10
57594;BME280;43423;46.510;6.686;2022-08-24T00:42:13;96422.50;;;20.10;46.11
57594;BME280;43423;46.510;6.686;2022-08-24T00:44:39;96412.34;;;19.99;46.35
57594;BME280;43423;46.510;6.686;2022-08-24T00:47:14;96412.06;;;20.10;46.96
57594;BME280;43423;46.510;6.686;2022-08-24T00:49:45;96416.16;;;20.09;46.25
57594;BME280;43423;46.510;6.686;2022-08-24T00:52:20;96399.97;;;20.07;46.08
57594;BME280;43423;46.510;6.686;2022-08-24T00:55:03;96409.81;;;19.88;46.74
57594;BME280;43423;46.510;6.686;2022-08-24T00:57:33;96404.41;;;19.90;46.74
57594;BME280;43423;46.510;6.686;2022-08-24T01:00:10;96420.00;;;19.85;46.38
57594;BME280;43423;46.510;6.686;2022-08-24T01:02:38;96386.78;;;19.74;46.53
57594;BME280;43423;46.510;6.686;2022-08-24T01:05:08;96419.66;;;19.89;46.64
57594;BME280;43423;46.510;6.686;2022-08-24T01:07:35;96421.59;;;19.94;46.29
57594;BME280;43423;46.510;6.686;2022-08-24T01:10:07;96425.16;;;19.81;46.63
57594;BME280;43423;46.510;6.686;2022-08-24T01:12:36;96422.38;;;19.81;46.72
57594;BME280;43423;46.510;6.686;2022-08-24T01:15:06;96414.84;;;19.89;46.91
57594;BME280;43423;46.510;6.686;2022-08-24T01:17:32;96424.31;;;19.86;46.50
57594;BME280;43423;46.510;6.686;2022-08-24T01:20:18;96421.81;;;19.83;46.82
57594;BME280;43423;46.510;6.686;2022-08-24T01:25:15;96412.94;;;19.84;46.41
57594;BME280;43423;46.510;6.686;2022-08-24T01:27:41;96413.84;;;19.66;47.17
57594;BME280;43423;46.510;6.686;2022-08-24T01:30:11;96429.44;;;19.82;46.47
57594;BME280;43423;46.510;6.686;2022-08-24T01:32:39;96421.00;;;19.74;47.10
57594;BME280;43423;46.510;6.686;2022-08-24T01:35:06;96425.13;;;19.60;47.76
57594;BME280;43423;46.510;6.686;2022-08-24T01:37:33;96423.41;;;19.57;47.26
57594;BME280;43423;46.510;6.686;2022-08-24T01:40:02;96425.53;;;19.51;47.79
57594;BME280;43423;46.510;6.686;2022-08-24T01:42:30;96425.13;;;19.60;46.83
57594;BME280;43423;46.510;6.686;2022-08-24T01:44:59;96422.19;;;19.66;47.65
57594;BME280;43423;46.510;6.686;2022-08-24T01:47:25;96422.66;;;19.57;47.63
57594;BME280;43423;46.510;6.686;2022-08-24T01:49:51;96418.56;;;19.58;47.46
57594;BME280;43423;46.510;6.686;2022-08-24T01:52:20;96419.09;;;19.56;47.30
57594;BME280;43423;46.510;6.686;2022-08-24T01:54:46;96422.13;;;19.58;47.32
57594;BME280;43423;46.510;6.686;2022-08-24T01:57:12;96414.50;;;19.45;47.83
57594;BME280;43423;46.510;6.686;2022-08-24T01:59:38;96424.03;;;19.50;48.03
57594;BME280;43423;46.510;6.686;2022-08-24T02:02:09;96417.09;;;19.43;47.89
57594;BME280;43423;46.510;6.686;2022-08-24T02:04:36;96417.31;;;19.45;47.57
57594;BME280;43423;46.510;6.686;2022-08-24T02:07:02;96419.09;;;19.43;47.70
57594;BME280;43423;46.510;6.686;2022-08-24T02:09:28;96421.69;;;19.41;47.63
57594;BME280;43423;46.510;6.686;2022-08-24T02:11:53;96422.78;;;19.38;47.58
57594;BME280;43423;46.510;6.686;2022-08-24T02:14:20;96417.31;;;19.32;47.62
57594;BME280;43423;46.510;6.686;2022-08-24T02:16:46;96422.59;;;19.22;47.65
57594;BME280;43423;46.510;6.686;2022-08-24T02:19:11;96422.59;;;19.22;47.88
57594;BME280;43423;46.510;6.686;2022-08-24T02:21:37;96426.13;;;19.10;48.02
57594;BME280;43423;46.510;6.686;2022-08-24T02:24:03;96431.25;;;19.19;48.20
57594;BME280;43423;46.510;6.686;2022-08-24T02:26:29;96426.22;;;19.17;48.08
57594;BME280;43423;46.510;6.686;2022-08-24T02:28:55;96425.38;;;19.22;47.81
57594;BME280;43423;46.510;6.686;2022-08-24T02:31:20;96424.53;;;19.14;48.17
57594;BME280;43423;46.510;6.686;2022-08-24T02:33:46;96426.56;;;19.14;48.01
57594;BME280;43423;46.510;6.686;2022-08-24T02:36:13;96437.06;;;19.21;48.07
57594;BME280;43423;46.510;6.686;2022-08-24T02:38:38;96438.34;;;19.20;48.13
57594;BME280;43423;46.510;6.686;2022-08-24T02:41:04;96429.44;;;19.21;48.23
57594;BME280;43423;46.510;6.686;2022-08-24T02:43:30;96421.53;;;19.12;48.28
57594;BME280;43423;46.510;6.686;2022-08-24T02:45:56;96423.44;;;19.17;48.49
57594;BME280;43423;46.510;6.686;2022-08-24T02:48:21;96433.28;;;19.18;48.38
57594;BME280;43423;46.510;6.686;2022-08-24T02:50:49;96438.00;;;19.10;48.75
57594;BME280;43423;46.510;6.686;2022-08-24T02:53:17;96435.47;;;19.12;49.43
57594;BME280;43423;46.510;6.686;2022-08-24T02:55:44;96440.25;;;19.25;48.36
57594;BME280;43423;46.510;6.686;2022-08-24T02:58:11;96429.88;;;19.25;48.41
57594;BME280;43423;46.510;6.686;2022-08-24T03:00:39;96434.03;;;19.19;49.10
57594;BME280;43423;46.510;6.686;2022-08-24T03:03:06;96427.06;;;19.25;48.22
57594;BME280;43423;46.510;6.686;2022-08-24T03:05:32;96424.72;;;19.16;49.11
57594;BME280;43423;46.510;6.686;2022-08-24T03:07:58;96423.34;;;19.23;48.60
57594;BME280;43423;46.510;6.686;2022-08-24T03:10:24;96421.41;;;19.18;48.48
57594;BME280;43423;46.510;6.686;2022-08-24T03:12:50;96414.13;;;19.28;48.33
57594;BME280;43423;46.510;6.686;2022-08-24T03:15:16;96414.13;;;19.15;48.81
57594;BME280;43423;46.510;6.686;2022-08-24T03:17:43;96422.78;;;19.11;49.23
57594;BME280;43423;46.510;6.686;2022-08-24T03:20:12;96409.63;;;18.99;49.58
57594;BME280;43423;46.510;6.686;2022-08-24T03:22:39;96416.16;;;18.88;50.00
57594;BME280;43423;46.510;6.686;2022-08-24T03:25:05;96413.91;;;18.86;50.31
57594;BME280;43423;46.510;6.686;2022-08-24T03:27:31;96415.19;;;18.85;50.75
57594;BME280;43423;46.510;6.686;2022-08-24T03:29:57;96422.69;;;18.77;51.85
57594;BME280;43423;46.510;6.686;2022-08-24T03:32:23;96430.38;;;18.71;51.72
57594;BME280;43423;46.510;6.686;2022-08-24T03:34:48;96422.75;;;18.58;52.09
57594;BME280;43423;46.510;6.686;2022-08-24T03:37:13;96422.50;;;18.56;52.96
57594;BME280;43423;46.510;6.686;2022-08-24T03:39:40;96420.38;;;18.49;53.18
57594;BME280;43423;46.510;6.686;2022-08-24T03:42:06;96419.50;;;18.41;53.73
57594;BME280;43423;46.510;6.686;2022-08-24T03:44:32;96419.31;;;18.52;52.58
57594;BME280;43423;46.510;6.686;2022-08-24T03:46:58;96422.50;;;18.56;52.61
57594;BME280;43423;46.510;6.686;2022-08-24T03:49:23;96419.19;;;18.45;53.56
57594;BME280;43423;46.510;6.686;2022-08-24T03:51:48;96421.31;;;18.38;53.38
57594;BME280;43423;46.510;6.686;2022-08-24T03:54:15;96429.22;;;18.34;53.95
57594;BME280;43423;46.510;6.686;2022-08-24T03:56:40;96429.16;;;18.53;53.15
57594;BME280;43423;46.510;6.686;2022-08-24T03:59:07;96430.88;;;18.56;52.36
57594;BME280;43423;46.510;6.686;2022-08-24T04:01:35;96428.06;;;18.43;53.28
57594;BME280;43423;46.510;6.686;2022-08-24T04:04:02;96433.50;;;18.35;53.78
57594;BME280;43423;46.510;6.686;2022-08-24T04:06:27;96433.81;;;18.32;54.38
57594;BME280;43423;46.510;6.686;2022-08-24T04:08:54;96433.72;;;18.37;53.79
57594;BME280;43423;46.510;6.686;2022-08-24T04:11:23;96420.66;;;18.32;53.61
57594;BME280;43423;46.510;6.686;2022-08-24T04:13:51;96431.28;;;18.34;53.86
57594;BME280;43423;46.510;6.686;2022-08-24T04:16:19;96424.59;;;18.24;54.79
57594;BME280;43423;46.510;6.686;2022-08-24T04:18:45;96420.97;;;18.29;54.93
57594;BME280;43423;46.510;6.686;2022-08-24T04:21:24;96427.66;;;18.52;54.68
57594;BME280;43423;46.510;6.686;2022-08-24T04:23:51;96419.38;;;18.33;54.67
57594;BME280;43423;46.510;6.686;2022-08-24T04:26:18;96414.31;;;18.19;54.83
57594;BME280;43423;46.510;6.686;2022-08-24T04:28:45;96428.91;;;18.25;55.49
57594;BME280;43423;46.510;6.686;2022-08-24T04:31:10;96422.00;;;18.12;55.81
57594;BME280;43423;46.510;6.686;2022-08-24T04:33:36;96430.47;;;18.20;55.10
57594;BME280;43423;46.510;6.686;2022-08-24T04:36:06;96441.00;;;18.40;54.92
57594;BME280;43423;46.510;6.686;2022-08-24T04:38:34;96437.25;;;18.38;54.80
57594;BME280;43423;46.510;6.686;2022-08-24T04:41:03;96437.34;;;18.32;55.04
57594;BME280;43423;46.510;6.686;2022-08-24T04:43:29;96427.69;;;18.20;55.04
57594;BME280;43423;46.510;6.686;2022-08-24T04:45:54;96434.88;;;18.29;54.32
57594;BME280;43423;46.510;6.686;2022-08-24T04:48:20;96433.16;;;18.26;53.85
57594;BME280;43423;46.510;6.686;2022-08-24T04:50:45;96430.25;;;18.18;53.51
57594;BME280;43423;46.510;6.686;2022-08-24T04:53:12;96434.97;;;18.23;53.39
57594;BME280;43423;46.510;6.686;2022-08-24T04:55:44;96452.25;;;18.35;53.40
57594;BME280;43423;46.510;6.686;2022-08-24T04:58:15;96437.88;;;18.31;53.76
57594;BME280;43423;46.510;6.686;2022-08-24T05:00:41;96454.16;;;18.27;54.86
57594;BME280;43423;46.510;6.686;2022-08-24T05:03:07;96448.59;;;18.27;54.66
57594;BME280;43423;46.510;6.686;2022-08-24T05:05:33;96454.44;;;18.23;55.03
57594;BME280;43423;46.510;6.686;2022-08-24T05:07:59;96454.78;;;18.20;54.98
57594;BME280;43423;46.510;6.686;2022-08-24T05:10:24;96454.22;;;18.21;54.69
57594;BME280;43423;46.510;6.686;2022-08-24T05:12:49;96449.00;;;18.31;55.16
57594;BME280;43423;46.510;6.686;2022-08-24T05:15:15;96456.94;;;18.27;54.91
57594;BME280;43423;46.510;6.686;2022-08-24T05:17:41;96453.09;;;18.30;54.79
57594;BME280;43423;46.510;6.686;2022-08-24T05:20:09;96447.09;;;18.26;54.63
57594;BME280;43423;46.510;6.686;2022-08-24T05:22:36;96463.78;;;18.26;54.51
57594;BME280;43423;46.510;6.686;2022-08-24T05:25:03;96462.59;;;18.21;54.76
57594;BME280;43423;46.510;6.686;2022-08-24T05:27:29;96462.50;;;18.27;54.05
57594;BME280;43423;46.510;6.686;2022-08-24T05:29:54;96461.63;;;18.19;53.93
57594;BME280;43423;46.510;6.686;2022-08-24T05:32:20;96469.03;;;18.29;53.27
57594;BME280;43423;46.510;6.686;2022-08-24T05:34:46;96461.75;;;18.26;53.31
57594;BME280;43423;46.510;6.686;2022-08-24T05:37:12;96471.00;;;18.16;54.16
57594;BME280;43423;46.510;6.686;2022-08-24T05:39:37;96451.75;;;17.85;54.77
57594;BME280;43423;46.510;6.686;2022-08-24T05:42:03;96463.63;;;17.86;54.80
57594;BME280;43423;46.510;6.686;2022-08-24T05:44:29;96472.94;;;17.89;54.97
57594;BME280;43423;46.510;6.686;2022-08-24T05:46:55;96473.22;;;17.85;54.77
57594;BME280;43423;46.510;6.686;2022-08-24T05:49:23;96477.81;;;17.82;55.22
57594;BME280;43423;46.510;6.686;2022-08-24T05:51:49;96481.25;;;17.70;55.51
57594;BME280;43423;46.510;6.686;2022-08-24T05:54:14;96485.19;;;17.80;55.39
57594;BME280;43423;46.510;6.686;2022-08-24T05:56:40;96477.06;;;17.82;55.38
57594;BME280;43423;46.510;6.686;2022-08-24T05:59:05;96481.66;;;17.79;56.02
57594;BME280;43423;46.510;6.686;2022-08-24T06:01:31;96484.63;;;18.00;55.71
57594;BME280;43423;46.510;6.686;2022-08-24T06:03:58;96486.56;;;18.24;55.40
57594;BME280;43423;46.510;6.686;2022-08-24T06:06:25;96481.63;;;18.49;54.83
57594;BME280;43423;46.510;6.686;2022-08-24T06:08:55;96489.31;;;18.75;55.08
57594;BME280;43423;46.510;6.686;2022-08-24T06:11:23;96487.53;;;18.91;54.86
57594;BME280;43423;46.510;6.686;2022-08-24T06:13:54;96489.91;;;19.13;55.97
57594;BME280;43423;46.510;6.686;2022-08-24T06:16:21;96489.69;;;19.38;55.64
57594;BME280;43423;46.510;6.686;2022-08-24T06:18:49;96490.09;;;19.55;56.02
57594;BME280;43423;46.510;6.686;2022-08-24T06:21:17;96489.88;;;19.79;56.16
57594;BME280;43423;46.510;6.686;2022-08-24T06:23:43;96490.44;;;20.12;55.34
57594;BME280;43423;46.510;6.686;2022-08-24T06:26:10;96496.44;;;20.37;53.87
57594;BME280;43423;46.510;6.686;2022-08-24T06:28:55;96491.59;;;20.51;54.63
57594;BME280;43423;46.510;6.686;2022-08-24T06:31:21;96489.63;;;20.80;53.91
57594;BME280;43423;46.510;6.686;2022-08-24T06:33:48;96502.47;;;21.32;51.88
57594;BME280;43423;46.510;6.686;2022-08-24T06:36:14;96498.19;;;21.60;51.47
57594;BME280;43423;46.510;6.686;2022-08-24T06:38:40;96502.09;;;21.57;50.93
57594;BME280;43423;46.510;6.686;2022-08-24T06:41:06;96499.63;;;21.89;48.87
57594;BME280;43423;46.510;6.686;2022-08-24T06:43:32;96505.22;;;21.89;48.11
57594;BME280;43423;46.510;6.686;2022-08-24T06:45:58;96489.25;;;21.69;48.56
57594;BME280;43423;46.510;6.686;2022-08-24T06:48:25;96503.63;;;21.65;48.21
57594;BME280;43423;46.510;6.686;2022-08-24T06:50:52;96500.03;;;21.57;49.66
57594;BME280;43423;46.510;6.686;2022-08-24T06:53:18;96498.25;;;21.75;48.91
57594;BME280;43423;46.510;6.686;2022-08-24T06:55:47;96497.72;;;21.84;49.16
57594;BME280;43423;46.510;6.686;2022-08-24T06:58:13;96497.78;;;21.99;48.08
57594;BME280;43423;46.510;6.686;2022-08-24T07:00:39;96500.25;;;22.11;48.53
57594;BME280;43423;46.510;6.686;2022-08-24T07:03:04;96509.22;;;22.09;49.03
57594;BME280;43423;46.510;6.686;2022-08-24T07:05:30;96503.31;;;22.43;46.90
57594;BME280;43423;46.510;6.686;2022-08-24T07:07:55;96507.84;;;22.54;46.27
57594;BME280;43423;46.510;6.686;2022-08-24T07:10:21;96511.56;;;22.56;47.24
57594;BME280;43423;46.510;6.686;2022-08-24T07:12:47;96503.72;;;22.47;47.09
57594;BME280;43423;46.510;6.686;2022-08-24T07:15:12;96512.28;;;22.42;46.48
57594;BME280;43423;46.510;6.686;2022-08-24T07:17:38;96510.09;;;22.63;47.70
57594;BME280;43423;46.510;6.686;2022-08-24T07:20:04;96510.06;;;22.48;50.22
57594;BME280;43423;46.510;6.686;2022-08-24T07:22:29;96514.19;;;22.47;50.15
57594;BME280;43423;46.510;6.686;2022-08-24T07:24:55;96515.47;;;22.38;50.63
57594;BME280;43423;46.510;6.686;2022-08-24T07:27:20;96513.75;;;22.27;51.28
57594;BME280;43423;46.510;6.686;2022-08-24T07:29:47;96517.06;;;22.11;51.70
57594;BME280;43423;46.510;6.686;2022-08-24T07:32:13;96517.81;;;22.11;54.14
57594;BME280;43423;46.510;6.686;2022-08-24T07:34:38;96525.31;;;22.24;55.14
57594;BME280;43423;46.510;6.686;2022-08-24T07:37:04;96518.53;;;22.04;54.13
57594;BME280;43423;46.510;6.686;2022-08-24T07:39:30;96527.69;;;22.05;54.29
57594;BME280;43423;46.510;6.686;2022-08-24T07:41:55;96521.94;;;22.18;54.38
57594;BME280;43423;46.510;6.686;2022-08-24T07:44:21;96522.34;;;22.22;53.82
57594;BME280;43423;46.510;6.686;2022-08-24T07:46:47;96522.47;;;22.09;54.22
57594;BME280;43423;46.510;6.686;2022-08-24T07:49:12;96528.66;;;22.15;54.85
57594;BME280;43423;46.510;6.686;2022-08-24T07:51:38;96530.16;;;22.16;54.88
57594;BME280;43423;46.510;6.686;2022-08-24T07:54:04;96527.72;;;22.12;55.04
57594;BME280;43423;46.510;6.686;2022-08-24T07:56:30;96527.22;;;22.29;54.66
57594;BME280;43423;46.510;6.686;2022-08-24T07:58:56;96528.13;;;22.24;53.91
57594;BME280;43423;46.510;6.686;2022-08-24T08:01:22;96528.53;;;22.28;54.54
57594;BME280;43423;46.510;6.686;2022-08-24T08:03:48;96525.53;;;22.34;54.17
57594;BME280;43423;46.510;6.686;2022-08-24T08:06:15;96528.56;;;22.51;53.71
57594;BME280;43423;46.510;6.686;2022-08-24T08:08:41;96532.88;;;22.44;53.24
57594;BME280;43423;46.510;6.686;2022-08-24T08:11:08;96534.91;;;22.36;54.37
57594;BME280;43423;46.510;6.686;2022-08-24T08:13:35;96534.31;;;22.30;54.86
57594;BME280;43423;46.510;6.686;2022-08-24T08:16:02;96529.13;;;22.49;53.79
57594;BME280;43423;46.510;6.686;2022-08-24T08:18:29;96541.78;;;22.35;53.37
57594;BME280;43423;46.510;6.686;2022-08-24T08:20:55;96529.50;;;22.46;53.33
57594;BME280;43423;46.510;6.686;2022-08-24T08:23:21;96531.00;;;22.47;54.45
57594;BME280;43423;46.510;6.686;2022-08-24T08:26:06;96540.38;;;22.80;53.17
57594;BME280;43423;46.510;6.686;2022-08-24T08:28:33;96535.50;;;22.73;53.33
57594;BME280;43423;46.510;6.686;2022-08-24T08:30:59;96542.53;;;22.43;52.94
57594;BME280;43423;46.510;6.686;2022-08-24T08:33:26;96537.75;;;22.51;52.84
57594;BME280;43423;46.510;6.686;2022-08-24T08:36:01;96538.09;;;22.48;53.53
57594;BME280;43423;46.510;6.686;2022-08-24T08:38:27;96531.03;;;22.70;53.44
57594;BME280;43423;46.510;6.686;2022-08-24T08:43:40;96540.75;;;22.69;52.06
57594;BME280;43423;46.510;6.686;2022-08-24T08:46:36;96546.19;;;22.90;52.72
57594;BME280;43423;46.510;6.686;2022-08-24T08:49:33;96547.34;;;23.02;52.46
57594;BME280;43423;46.510;6.686;2022-08-24T08:52:21;96544.53;;;23.02;53.67
57594;BME280;43423;46.510;6.686;2022-08-24T09:00:23;96536.31;;;23.04;51.97
57594;BME280;43423;46.510;6.686;2022-08-24T09:14:45;96526.19;;;23.39;51.09
57594;BME280;43423;46.510;6.686;2022-08-24T09:22:43;96530.56;;;23.88;49.24
57594;BME280;43423;46.510;6.686;2022-08-24T09:25:23;96522.53;;;23.77;48.98
57594;BME280;43423;46.510;6.686;2022-08-24T09:33:34;96518.66;;;23.72;48.18
57594;BME280;43423;46.510;6.686;2022-08-24T09:36:30;96513.72;;;23.88;48.57
57594;BME280;43423;46.510;6.686;2022-08-24T09:55:23;96502.81;;;24.00;47.37
57594;BME280;43423;46.510;6.686;2022-08-24T09:58:15;96498.13;;;24.02;47.69
57594;BME280;43423;46.510;6.686;2022-08-24T10:00:46;96503.81;;;24.27;45.39
57594;BME280;43423;46.510;6.686;2022-08-24T10:03:24;96501.56;;;24.26;46.98
57594;BME280;43423;46.510;6.686;2022-08-24T10:11:57;96493.97;;;24.11;44.66
57594;BME280;43423;46.510;6.686;2022-08-24T10:20:04;96501.44;;;24.08;48.12
57594;BME280;43423;46.510;6.686;2022-08-24T10:30:54;96491.72;;;24.09;46.82
57594;BME280;43423;46.510;6.686;2022-08-24T10:44:57;96484.72;;;24.26;45.48
57594;BME280;43423;46.510;6.686;2022-08-24T10:47:35;96487.38;;;24.16;45.86
57594;BME280;43423;46.510;6.686;2022-08-24T10:50:24;96486.41;;;24.21;45.58
57594;BME280;43423;46.510;6.686;2022-08-24T10:52:56;96487.03;;;24.12;44.64
57594;BME280;43423;46.510;6.686;2022-08-24T10:55:30;96488.38;;;24.03;46.18
57594;BME280;43423;46.510;6.686;2022-08-24T10:58:09;96487.38;;;24.16;45.72
57594;BME280;43423;46.510;6.686;2022-08-24T11:00:37;96484.00;;;24.17;44.95
57594;BME280;43423;46.510;6.686;2022-08-24T11:03:10;96480.59;;;24.27;44.65
57594;BME280;43423;46.510;6.686;2022-08-24T11:05:50;96488.66;;;24.22;46.26
57594;BME280;43423;46.510;6.686;2022-08-24T11:08:25;96483.56;;;24.29;46.67
57594;BME280;43423;46.510;6.686;2022-08-24T11:11:12;96475.72;;;24.27;47.37
57594;BME280;43423;46.510;6.686;2022-08-24T11:13:57;96476.44;;;24.35;45.85
57594;BME280;43423;46.510;6.686;2022-08-24T11:16:45;96484.16;;;24.60;46.16
57594;BME280;43423;46.510;6.686;2022-08-24T11:19:13;96482.53;;;24.74;46.21
57594;BME280;43423;46.510;6.686;2022-08-24T11:21:55;96492.63;;;24.77;45.52
57594;BME280;43423;46.510;6.686;2022-08-24T11:34:54;96475.38;;;24.81;46.80
57594;BME280;43423;46.510;6.686;2022-08-24T11:37:30;96481.50;;;24.87;46.08
57594;BME280;43423;46.510;6.686;2022-08-24T11:39:56;96480.94;;;25.13;45.36
57594;BME280;43423;46.510;6.686;2022-08-24T11:45:35;96483.59;;;25.63;44.77
57594;BME280;43423;46.510;6.686;2022-08-24T11:51:09;96482.94;;;25.55;44.31
57594;BME280;43423;46.510;6.686;2022-08-24T11:54:02;96472.19;;;25.61;44.79
57594;BME280;43423;46.510;6.686;2022-08-24T11:56:45;96483.84;;;25.40;45.94
57594;BME280;43423;46.510;6.686;2022-08-24T12:02:41;96483.03;;;25.47;45.10
57594;BME280;43423;46.510;6.686;2022-08-24T12:05:38;96483.44;;;25.44;44.85
57594;BME280;43423;46.510;6.686;2022-08-24T12:14:16;96486.91;;;25.34;46.94
57594;BME280;43423;46.510;6.686;2022-08-24T12:16:54;96474.31;;;25.36;46.06
57594;BME280;43423;46.510;6.686;2022-08-24T12:19:23;96476.47;;;25.27;46.23
57594;BME280;43423;46.510;6.686;2022-08-24T12:21:54;96464.22;;;25.15;45.96
57594;BME280;43423;46.510;6.686;2022-08-24T12:24:38;96472.66;;;25.15;46.57
57594;BME280;43423;46.510;6.686;2022-08-24T12:27:30;96465.44;;;25.04;46.94
57594;BME280;43423;46.510;6.686;2022-08-24T12:30:01;96462.88;;;25.16;48.39
57594;BME280;43423;46.510;6.686;2022-08-24T12:32:39;96469.50;;;25.11;49.13
57594;BME280;43423;46.510;6.686;2022-08-24T12:35:26;96469.03;;;25.22;49.28
57594;BME280;43423;46.510;6.686;2022-08-24T12:41:47;96470.50;;;25.23;47.37
57594;BME280;43423;46.510;6.686;2022-08-24T12:44:15;96468.00;;;25.27;47.56
57594;BME280;43423;46.510;6.686;2022-08-24T12:46:41;96466.38;;;25.24;48.03
57594;BME280;43423;46.510;6.686;2022-08-24T12:49:28;96466.53;;;25.26;49.28
57594;BME280;43423;46.510;6.686;2022-08-24T12:57:50;96463.53;;;25.59;47.21
57594;BME280;43423;46.510;6.686;2022-08-24T13:00:33;96461.31;;;25.75;46.85
57594;BME280;43423;46.510;6.686;2022-08-24T13:03:04;96459.44;;;25.77;46.70
57594;BME280;43423;46.510;6.686;2022-08-24T13:05:39;96458.69;;;25.77;46.01
57594;BME280;43423;46.510;6.686;2022-08-24T13:08:13;96458.16;;;25.88;46.40
57594;BME280;43423;46.510;6.686;2022-08-24T13:10:51;96455.41;;;25.98;45.35
57594;BME280;43423;46.510;6.686;2022-08-24T13:13:46;96453.41;;;26.08;46.02
57594;BME280;43423;46.510;6.686;2022-08-24T13:19:16;96448.50;;;26.35;44.73
57594;BME280;43423;46.510;6.686;2022-08-24T13:21:49;96444.56;;;26.21;45.21
57594;BME280;43423;46.510;6.686;2022-08-24T13:26:54;96443.81;;;26.21;44.06
57594;BME280;43423;46.510;6.686;2022-08-24T13:29:27;96445.31;;;26.39;43.70
57594;BME280;43423;46.510;6.686;2022-08-24T13:31:55;96431.75;;;26.37;43.95
57594;BME280;43423;46.510;6.686;2022-08-24T13:34:42;96434.56;;;26.37;43.69
57594;BME280;43423;46.510;6.686;2022-08-24T13:37:20;96428.94;;;26.37;44.29
57594;BME280;43423;46.510;6.686;2022-08-24T13:42:26;96431.94;;;26.39;43.71
57594;BME280;43423;46.510;6.686;2022-08-24T14:04:31;96424.47;;;26.34;43.29
57594;BME280;43423;46.510;6.686;2022-08-24T14:07:05;96421.72;;;26.17;43.79
57594;BME280;43423;46.510;6.686;2022-08-24T14:32:26;96397.59;;;26.70;40.40
57594;BME280;43423;46.510;6.686;2022-08-24T14:34:37;96401.88;;;26.61;40.87
57594;BME280;43423;46.510;6.686;2022-08-24T14:39:58;96393.75;;;26.75;40.57
57594;BME280;43423;46.510;6.686;2022-08-24T14:42:35;96392.28;;;26.74;39.92
57594;BME280;43423;46.510;6.686;2022-08-24T14:45:20;96389.19;;;26.80;39.60
57594;BME280;43423;46.510;6.686;2022-08-24T15:08:04;96380.72;;;26.80;39.58
57594;BME280;43423;46.510;6.686;2022-08-24T15:10:42;96375.69;;;26.78;39.84
57594;BME280;43423;46.510;6.686;2022-08-24T15:13:28;96381.16;;;26.86;39.25
57594;BME280;43423;46.510;6.686;2022-08-24T15:16:12;96379.66;;;26.85;40.23
57594;BME280;43423;46.510;6.686;2022-08-24T15:18:44;96385.63;;;26.89;40.01
57594;BME280;43423;46.510;6.686;2022-08-24T15:21:28;96378.06;;;26.91;39.51
57594;BME280;43423;46.510;6.686;2022-08-24T15:24:04;96375.38;;;26.93;40.17
57594;BME280;43423;46.510;6.686;2022-08-24T15:27:10;96382.53;;;26.94;39.51
57594;BME280;43423;46.510;6.686;2022-08-24T15:29:52;96375.34;;;26.74;39.89
57594;BME280;43423;46.510;6.686;2022-08-24T15:32:19;96371.03;;;26.63;40.35
57594;BME280;43423;46.510;6.686;2022-08-24T15:34:52;96379.16;;;26.50;41.33
57594;BME280;43423;46.510;6.686;2022-08-24T15:37:28;96365.78;;;26.40;41.26
57594;BME280;43423;46.510;6.686;2022-08-24T15:39:55;96376.81;;;26.56;40.28
57594;BME280;43423;46.510;6.686;2022-08-24T15:42:21;96374.25;;;26.50;39.97
57594;BME280;43423;46.510;6.686;2022-08-24T15:44:48;96368.28;;;26.46;40.77
57594;BME280;43423;46.510;6.686;2022-08-24T15:47:28;96369.19;;;26.39;41.72
57594;BME280;43423;46.510;6.686;2022-08-24T15:49:58;96375.88;;;26.43;41.00
57594;BME280;43423;46.510;6.686;2022-08-24T15:52:42;96364.69;;;26.36;41.18
57594;BME280;43423;46.510;6.686;2022-08-24T15:55:37;96371.66;;;26.35;40.74
57594;BME280;43423;46.510;6.686;2022-08-24T15:58:27;96373.72;;;26.34;40.51
57594;BME280;43423;46.510;6.686;2022-08-24T16:03:56;96367.59;;;26.19;41.60
57594;BME280;43423;46.510;6.686;2022-08-24T16:06:42;96368.06;;;26.25;40.93
57594;BME280;43423;46.510;6.686;2022-08-24T16:11:47;96371.19;;;26.29;40.32
57594;BME280;43423;46.510;6.686;2022-08-24T16:14:36;96375.78;;;26.24;40.42
57594;BME280;43423;46.510;6.686;2022-08-24T16:17:35;96361.59;;;26.05;40.45
57594;BME280;43423;46.510;6.686;2022-08-24T16:20:06;96355.69;;;26.10;40.85
57594;BME280;43423;46.510;6.686;2022-08-24T16:22:37;96355.56;;;26.18;40.54
57594;BME280;43423;46.510;6.686;2022-08-24T16:28:09;96368.38;;;25.92;41.99
57594;BME280;43423;46.510;6.686;2022-08-24T16:33:08;96371.84;;;25.83;41.50
57594;BME280;43423;46.510;6.686;2022-08-24T16:35:34;96367.84;;;25.76;42.56
57594;BME280;43423;46.510;6.686;2022-08-24T16:38:00;96375.69;;;25.78;43.09